createdAt,value
2023-12-15T00:00:41.988Z,2.60
2023-12-15T00:03:10.528Z,2.80
2023-12-15T00:05:40.454Z,2.70
2023-12-15T00:08:09.070Z,2.80
2023-12-15T00:10:37.434Z,2.80
2023-12-15T00:13:05.873Z,2.80
2023-12-15T00:15:34.178Z,2.70
2023-12-15T00:18:02.799Z,2.60
2023-12-15T00:20:31.384Z,2.60
2023-12-15T00:23:01.165Z,2.60
2023-12-15T00:25:29.659Z,2.40
2023-12-15T00:27:59.081Z,2.50
2023-12-15T00:30:28.214Z,2.60
2023-12-15T00:32:56.865Z,2.50
2023-12-15T00:35:25.720Z,2.70
2023-12-15T00:37:58.416Z,2.60
2023-12-15T00:40:28.531Z,2.50
2023-12-15T00:43:01.284Z,2.70
2023-12-15T00:45:33.108Z,2.70
2023-12-15T00:48:01.612Z,2.60
2023-12-15T00:50:31.494Z,2.70
2023-12-15T00:53:00.084Z,2.80
2023-12-15T00:55:30.346Z,2.80
2023-12-15T00:57:57.768Z,2.90
2023-12-15T01:00:26.330Z,2.80
2023-12-15T01:02:54.963Z,2.80
2023-12-15T01:05:24.243Z,2.80
2023-12-15T01:07:53.045Z,2.90
2023-12-15T01:10:21.318Z,3.00
2023-12-15T01:12:51.078Z,3.00
2023-12-15T01:15:19.538Z,3.10
2023-12-15T01:17:48.146Z,3.20
2023-12-15T01:20:18.150Z,3.10
2023-12-15T01:22:49.717Z,3.10
2023-12-15T01:25:18.254Z,3.00
2023-12-15T01:27:51.625Z,3.10
2023-12-15T01:30:20.320Z,3.10
2023-12-15T01:32:49.034Z,3.20
2023-12-15T01:35:17.749Z,3.10
2023-12-15T01:37:46.920Z,3.10
2023-12-15T01:40:15.666Z,3.10
2023-12-15T01:42:44.175Z,3.30
2023-12-15T01:45:14.245Z,3.20
2023-12-15T01:47:43.336Z,3.20
2023-12-15T01:50:12.619Z,3.10
2023-12-15T01:52:41.019Z,3.00
2023-12-15T01:55:09.960Z,3.10
2023-12-15T01:57:38.847Z,3.10
2023-12-15T02:00:09.729Z,3.00
2023-12-15T02:02:42.477Z,3.00
2023-12-15T02:05:11.330Z,3.10
2023-12-15T02:07:41.439Z,3.10
2023-12-15T02:10:09.978Z,3.10
2023-12-15T02:12:38.445Z,3.20
2023-12-15T02:15:10.522Z,3.20
2023-12-15T02:17:39.856Z,3.30
2023-12-15T02:20:10.553Z,3.20
2023-12-15T02:22:40.750Z,3.30
2023-12-15T02:25:09.888Z,3.40
2023-12-15T02:27:38.477Z,3.40
2023-12-15T02:30:08.252Z,3.40
2023-12-15T02:32:36.830Z,3.30
2023-12-15T02:35:05.866Z,3.30
2023-12-15T02:37:34.567Z,3.30
2023-12-15T02:40:04.927Z,3.30
2023-12-15T02:42:33.236Z,3.30
2023-12-15T02:45:02.959Z,3.10
2023-12-15T02:47:31.674Z,3.20
2023-12-15T02:50:00.572Z,3.10
2023-12-15T02:52:29.368Z,3.10
2023-12-15T02:54:58.113Z,3.20
2023-12-15T02:57:28.567Z,3.10
2023-12-15T02:59:57.125Z,3.20
2023-12-15T03:02:25.579Z,3.20
2023-12-15T03:04:54.088Z,3.10
2023-12-15T03:07:22.647Z,3.30
2023-12-15T03:09:51.357Z,3.40
2023-12-15T03:12:19.863Z,3.30
2023-12-15T03:14:50.423Z,3.20
2023-12-15T03:17:18.968Z,3.10
2023-12-15T03:19:47.491Z,3.10
2023-12-15T03:22:16.067Z,3.30
2023-12-15T03:24:47.157Z,3.30
2023-12-15T03:27:15.824Z,3.20
2023-12-15T03:29:46.371Z,3.20
2023-12-15T03:32:16.323Z,3.10
2023-12-15T03:34:45.254Z,3.30
2023-12-15T03:37:13.839Z,3.30
2023-12-15T03:39:42.471Z,3.20
2023-12-15T03:42:11.105Z,3.20
2023-12-15T03:44:40.892Z,3.30
2023-12-15T03:47:10.777Z,3.30
2023-12-15T03:49:40.488Z,3.30
2023-12-15T03:52:09.010Z,3.30
2023-12-15T03:54:37.388Z,3.20
2023-12-15T03:57:06.300Z,3.20
2023-12-15T03:59:34.870Z,3.30
2023-12-15T04:02:03.533Z,3.30
2023-12-15T04:04:31.826Z,3.30
2023-12-15T04:07:01.926Z,3.40
2023-12-15T04:09:30.781Z,3.40
2023-12-15T04:11:59.429Z,3.40
2023-12-15T04:14:28.284Z,3.40
2023-12-15T04:16:56.708Z,3.30
2023-12-15T04:19:25.215Z,3.40
2023-12-15T04:21:53.761Z,3.40
2023-12-15T04:24:23.838Z,3.40
2023-12-15T04:26:52.189Z,3.50
2023-12-15T04:29:20.652Z,3.40
2023-12-15T04:31:49.077Z,3.40
2023-12-15T04:34:17.519Z,3.40
2023-12-15T04:36:46.619Z,3.50
2023-12-15T04:39:15.292Z,3.40
2023-12-15T04:41:47.568Z,3.30
2023-12-15T04:44:15.876Z,3.30
2023-12-15T04:46:44.932Z,3.30
2023-12-15T04:49:13.468Z,3.50
2023-12-15T04:51:42.362Z,3.40
2023-12-15T04:54:10.873Z,3.40
2023-12-15T04:56:39.304Z,3.50
2023-12-15T04:59:09.258Z,3.40
2023-12-15T05:01:37.669Z,3.40
2023-12-15T05:04:06.844Z,3.30
2023-12-15T05:06:36.356Z,3.40
2023-12-15T05:09:06.445Z,3.30
2023-12-15T05:11:36.653Z,3.40
2023-12-15T05:14:05.233Z,3.40
2023-12-15T05:16:34.944Z,3.50
2023-12-15T05:19:03.744Z,3.50
2023-12-15T05:21:32.221Z,3.50
2023-12-15T05:24:00.973Z,3.50
2023-12-15T05:26:29.620Z,3.50
2023-12-15T05:29:00.080Z,3.40
2023-12-15T05:31:28.501Z,3.50
2023-12-15T05:33:58.347Z,3.50
2023-12-15T05:36:26.766Z,3.50
2023-12-15T05:38:55.437Z,3.40
2023-12-15T05:41:24.821Z,3.40
2023-12-15T05:43:53.424Z,3.30
2023-12-15T05:46:22.012Z,3.40
2023-12-15T05:48:50.732Z,3.40
2023-12-15T05:51:20.805Z,3.30
2023-12-15T05:53:55.557Z,3.40
2023-12-15T05:56:26.805Z,3.40
2023-12-15T05:58:55.293Z,3.50
2023-12-15T06:01:23.756Z,3.50
2023-12-15T06:03:52.242Z,3.50
2023-12-15T06:06:21.974Z,3.50
2023-12-15T06:08:50.695Z,3.60
2023-12-15T06:11:19.714Z,3.60
2023-12-15T06:13:48.643Z,3.70
2023-12-15T06:16:20.559Z,3.50
2023-12-15T06:18:49.770Z,3.60
2023-12-15T06:21:26.899Z,3.50
2023-12-15T06:23:55.819Z,3.50
2023-12-15T06:26:27.166Z,3.60
2023-12-15T06:28:56.151Z,3.60
2023-12-15T06:31:27.313Z,3.60
2023-12-15T06:33:56.293Z,3.70
2023-12-15T06:36:30.408Z,3.50
2023-12-15T06:38:59.474Z,3.70
2023-12-15T06:41:28.528Z,3.60
2023-12-15T06:43:57.021Z,3.60
2023-12-15T06:46:25.337Z,3.60
2023-12-15T06:48:54.733Z,3.60
2023-12-15T06:51:23.218Z,3.70
2023-12-15T06:53:53.239Z,3.70
2023-12-15T06:56:21.604Z,3.60
2023-12-15T06:58:50.173Z,3.70
2023-12-15T07:01:20.065Z,3.70
2023-12-15T07:03:50.552Z,3.70
2023-12-15T07:06:19.744Z,3.70
2023-12-15T07:08:51.922Z,3.70
2023-12-15T07:11:21.824Z,3.70
2023-12-15T07:13:50.346Z,3.70
2023-12-15T07:16:19.281Z,3.70
2023-12-15T07:18:47.895Z,3.80
2023-12-15T07:21:16.568Z,3.80
2023-12-15T07:23:45.602Z,3.70
2023-12-15T07:26:14.045Z,3.80
2023-12-15T07:28:44.030Z,3.90
2023-12-15T07:31:12.842Z,3.90
2023-12-15T07:33:41.592Z,3.80
2023-12-15T07:36:11.861Z,3.70
2023-12-15T07:38:40.668Z,3.80
2023-12-15T07:41:09.918Z,3.80
2023-12-15T07:43:40.198Z,3.70
2023-12-15T07:46:17.879Z,3.80
2023-12-15T07:48:52.531Z,3.80
2023-12-15T07:51:22.449Z,3.80
2023-12-15T07:53:51.312Z,3.80
2023-12-15T07:56:23.985Z,3.90
2023-12-15T07:58:53.172Z,3.90
2023-12-15T08:01:23.999Z,3.90
2023-12-15T08:03:52.848Z,4.00
2023-12-15T08:06:21.582Z,4.10
2023-12-15T08:08:50.701Z,4.00
2023-12-15T08:11:19.208Z,4.00
2023-12-15T08:13:48.141Z,4.00
2023-12-15T08:16:16.778Z,3.90
2023-12-15T08:18:46.968Z,3.80
2023-12-15T08:21:15.542Z,3.80
2023-12-15T08:23:44.534Z,3.90
2023-12-15T08:26:22.139Z,3.90
2023-12-15T08:28:50.847Z,3.90
2023-12-15T08:31:19.356Z,3.80
2023-12-15T08:33:49.502Z,3.70
2023-12-15T08:36:18.011Z,3.70
2023-12-15T08:38:49.631Z,3.70
2023-12-15T08:41:18.264Z,3.70
2023-12-15T08:43:47.077Z,3.70
2023-12-15T08:46:15.695Z,3.70
2023-12-15T08:48:45.170Z,3.70
2023-12-15T08:51:15.018Z,3.70
2023-12-15T08:53:45.947Z,3.60
2023-12-15T08:56:14.662Z,3.80
2023-12-15T08:58:43.063Z,3.70
2023-12-15T09:01:12.649Z,3.70
2023-12-15T09:03:41.334Z,3.80
2023-12-15T09:06:25.712Z,3.80
2023-12-15T09:08:58.908Z,3.70
2023-12-15T09:11:28.026Z,3.80
2023-12-15T09:13:57.008Z,3.80
2023-12-15T09:16:25.658Z,3.90
2023-12-15T09:18:54.273Z,4.00
2023-12-15T09:21:22.805Z,4.00
2023-12-15T09:23:51.532Z,4.10
2023-12-15T09:26:21.604Z,4.20
2023-12-15T09:28:50.035Z,4.30
2023-12-15T09:31:18.681Z,4.30
2023-12-15T09:33:47.689Z,4.50
2023-12-15T09:36:17.060Z,4.40
2023-12-15T09:38:46.378Z,4.30
2023-12-15T09:41:15.601Z,4.30
2023-12-15T09:43:45.575Z,4.30
2023-12-15T09:46:14.435Z,4.20
2023-12-15T09:48:46.063Z,4.30
2023-12-15T09:51:21.223Z,4.30
2023-12-15T09:53:49.602Z,4.40
2023-12-15T09:56:18.678Z,4.30
2023-12-15T09:58:49.011Z,4.30
2023-12-15T10:01:17.935Z,4.30
2023-12-15T10:03:47.081Z,4.30
2023-12-15T10:06:16.138Z,4.30
2023-12-15T10:08:58.579Z,4.40
2023-12-15T10:11:35.231Z,4.40
2023-12-15T10:14:08.895Z,4.50
2023-12-15T10:16:38.148Z,4.60
2023-12-15T10:19:07.850Z,4.80
2023-12-15T10:21:37.947Z,4.70
2023-12-15T10:24:21.462Z,4.60
2023-12-15T10:26:50.393Z,4.50
2023-12-15T10:29:22.868Z,4.60
2023-12-15T10:31:52.532Z,4.50
2023-12-15T10:34:23.849Z,4.50
2023-12-15T10:36:53.268Z,4.60
2023-12-15T10:39:23.518Z,4.50
2023-12-15T10:41:54.320Z,4.60
2023-12-15T10:44:26.709Z,4.60
2023-12-15T10:46:55.228Z,4.50
2023-12-15T10:49:27.127Z,4.40
2023-12-15T10:52:01.412Z,4.50
2023-12-15T10:54:34.237Z,4.60
2023-12-15T10:57:04.026Z,4.60
2023-12-15T10:59:33.959Z,4.50
2023-12-15T11:02:02.667Z,4.50
2023-12-15T11:04:31.061Z,4.60
2023-12-15T11:07:00.641Z,4.60
2023-12-15T11:09:42.649Z,4.60
2023-12-15T11:12:25.218Z,4.70
2023-12-15T11:14:56.528Z,4.70
2023-12-15T11:17:27.294Z,4.80
2023-12-15T11:20:00.895Z,4.80
2023-12-15T11:22:31.298Z,4.80
2023-12-15T11:24:59.679Z,4.90
2023-12-15T11:27:28.260Z,4.90
2023-12-15T11:29:58.868Z,4.80
2023-12-15T11:32:30.763Z,4.70
2023-12-15T11:35:00.478Z,4.80
2023-12-15T11:37:30.066Z,4.80
2023-12-15T11:40:01.771Z,4.90
2023-12-15T11:42:31.097Z,5.00
2023-12-15T11:45:01.925Z,5.00
2023-12-15T11:47:32.152Z,5.00
2023-12-15T11:50:05.356Z,5.00
2023-12-15T11:52:33.955Z,4.80
2023-12-15T11:55:02.527Z,4.80
2023-12-15T11:57:31.502Z,4.80
2023-12-15T12:00:01.973Z,4.90
2023-12-15T12:02:31.779Z,5.00
2023-12-15T12:05:00.959Z,5.10
2023-12-15T12:07:29.559Z,5.00
2023-12-15T12:09:59.080Z,5.00
2023-12-15T12:12:29.572Z,5.00
2023-12-15T12:15:07.230Z,5.10
2023-12-15T12:17:35.971Z,5.00
2023-12-15T12:20:08.265Z,5.00
2023-12-15T12:22:38.551Z,4.80
2023-12-15T12:25:08.184Z,4.90
2023-12-15T12:27:38.272Z,4.80
2023-12-15T12:30:13.769Z,4.90
2023-12-15T12:32:43.410Z,4.90
2023-12-15T12:35:12.428Z,4.80
2023-12-15T12:37:41.022Z,4.80
2023-12-15T12:40:11.433Z,4.80
2023-12-15T12:42:40.403Z,4.90
2023-12-15T12:45:11.734Z,4.90
2023-12-15T12:47:43.046Z,4.80
2023-12-15T12:50:12.989Z,4.80
2023-12-15T12:52:41.682Z,4.90
2023-12-15T12:55:10.566Z,5.00
2023-12-15T12:57:41.616Z,4.90
2023-12-15T13:00:15.155Z,4.90
2023-12-15T13:02:43.948Z,4.90
2023-12-15T13:05:12.774Z,4.90
2023-12-15T13:07:41.561Z,5.00
2023-12-15T13:10:17.571Z,4.90
2023-12-15T13:12:53.427Z,4.90
2023-12-15T13:15:23.629Z,4.80
2023-12-15T13:17:55.220Z,4.90
2023-12-15T13:20:24.999Z,4.90
2023-12-15T13:22:54.177Z,4.80
2023-12-15T13:25:22.936Z,4.80
2023-12-15T13:27:52.990Z,4.80
2023-12-15T13:30:22.936Z,4.70
2023-12-15T13:32:51.643Z,4.80
2023-12-15T13:35:20.393Z,4.80
2023-12-15T13:37:48.847Z,4.90
2023-12-15T13:40:19.443Z,4.90
2023-12-15T13:42:48.988Z,4.80
2023-12-15T13:45:19.400Z,4.80
2023-12-15T13:47:50.143Z,4.70
2023-12-15T13:50:23.202Z,4.80
2023-12-15T13:52:52.964Z,4.90
2023-12-15T13:55:21.648Z,4.80
2023-12-15T13:57:52.332Z,4.80
2023-12-15T14:00:22.780Z,4.80
2023-12-15T14:02:52.957Z,4.80
2023-12-15T14:05:22.482Z,4.80
2023-12-15T14:07:51.656Z,4.70
2023-12-15T14:10:20.583Z,4.80
2023-12-15T14:12:49.340Z,4.70
2023-12-15T14:15:18.423Z,4.70
2023-12-15T14:17:47.501Z,4.80
2023-12-15T14:20:18.472Z,4.70
2023-12-15T14:22:47.266Z,4.80
2023-12-15T14:25:15.926Z,4.80
2023-12-15T14:27:44.557Z,4.80
2023-12-15T14:30:13.288Z,4.80
2023-12-15T14:32:42.461Z,4.80
2023-12-15T14:35:11.534Z,4.90
2023-12-15T14:37:42.430Z,4.90
2023-12-15T14:40:14.090Z,4.80
2023-12-15T14:42:42.555Z,4.80
2023-12-15T14:45:11.721Z,4.80
2023-12-15T14:47:40.845Z,4.80
2023-12-15T14:50:11.354Z,4.90
2023-12-15T14:52:42.209Z,4.90
2023-12-15T14:55:11.173Z,4.90
2023-12-15T14:57:39.870Z,4.90
2023-12-15T15:00:09.728Z,4.90
2023-12-15T15:02:38.779Z,4.90
2023-12-15T15:05:08.317Z,4.80
2023-12-15T15:07:38.201Z,4.90
2023-12-15T15:10:09.449Z,4.90
2023-12-15T15:12:38.317Z,4.90
2023-12-15T15:15:07.837Z,4.90
2023-12-15T15:17:37.231Z,4.90
2023-12-15T15:20:07.296Z,4.90
2023-12-15T15:22:35.929Z,4.90
2023-12-15T15:25:04.997Z,4.90
2023-12-15T15:27:35.228Z,5.00
2023-12-15T15:30:06.038Z,5.00
2023-12-15T15:32:34.895Z,4.90
2023-12-15T15:37:37.984Z,4.90
2023-12-15T15:40:08.164Z,4.90
2023-12-15T15:42:38.029Z,4.90
2023-12-15T15:45:07.195Z,4.80
2023-12-15T15:47:35.919Z,4.80
2023-12-15T15:50:05.899Z,4.80
2023-12-15T15:52:34.393Z,4.80
2023-12-15T15:55:03.019Z,4.90
2023-12-15T15:57:30.759Z,4.90
2023-12-15T16:00:01.306Z,5.00
2023-12-15T16:02:39.552Z,5.00
2023-12-15T16:05:09.695Z,5.00
2023-12-15T16:07:38.666Z,5.00
2023-12-15T16:10:08.360Z,5.00
2023-12-15T16:12:37.161Z,5.00
2023-12-15T16:15:08.832Z,4.90
2023-12-15T16:17:38.408Z,4.80
2023-12-15T16:20:09.185Z,4.80
2023-12-15T16:22:40.445Z,5.00
2023-12-15T16:25:10.051Z,4.90
2023-12-15T16:27:39.404Z,4.90
2023-12-15T16:30:11.259Z,5.00
2023-12-15T16:32:39.957Z,5.00
2023-12-15T16:35:09.184Z,5.00
2023-12-15T16:37:38.138Z,5.00
2023-12-15T16:40:08.961Z,4.90
2023-12-15T16:42:45.633Z,4.90
2023-12-15T16:45:16.389Z,4.80
2023-12-15T16:47:46.627Z,4.80
2023-12-15T16:50:15.681Z,4.80
2023-12-15T16:52:44.189Z,4.80
2023-12-15T16:55:12.938Z,4.80
2023-12-15T16:57:43.029Z,4.80
2023-12-15T17:00:12.714Z,4.80
2023-12-15T17:02:43.051Z,4.80
2023-12-15T17:05:11.758Z,4.80
2023-12-15T17:07:40.664Z,4.90
2023-12-15T17:10:10.886Z,4.80
2023-12-15T17:12:40.953Z,4.90
2023-12-15T17:15:10.655Z,4.80
2023-12-15T17:17:40.127Z,4.90
2023-12-15T17:20:12.641Z,4.90
2023-12-15T17:22:41.394Z,4.90
2023-12-15T17:25:10.466Z,4.80
2023-12-15T17:27:40.037Z,4.70
2023-12-15T17:30:10.773Z,4.70
2023-12-15T17:32:39.268Z,4.90
2023-12-15T17:35:10.617Z,4.80
2023-12-15T17:37:40.873Z,4.80
2023-12-15T17:40:11.450Z,4.80
2023-12-15T17:42:40.186Z,4.80
2023-12-15T17:45:10.863Z,4.70
2023-12-15T17:47:39.931Z,4.80
2023-12-15T17:50:09.915Z,4.80
2023-12-15T17:52:39.833Z,4.80
2023-12-15T17:55:08.801Z,4.80
2023-12-15T17:57:37.845Z,4.80
2023-12-15T18:00:07.796Z,4.80
2023-12-15T18:02:36.316Z,4.80
2023-12-15T18:05:05.376Z,4.80
2023-12-15T18:07:33.890Z,4.80
2023-12-15T18:10:03.879Z,4.70
2023-12-15T18:12:32.709Z,4.70
2023-12-15T18:15:01.234Z,4.70
2023-12-15T18:17:29.918Z,4.70
2023-12-15T18:19:58.544Z,4.70
2023-12-15T18:22:28.196Z,4.60
2023-12-15T18:24:57.082Z,4.60
2023-12-15T18:27:27.056Z,4.60
2023-12-15T18:29:58.387Z,4.60
2023-12-15T18:32:27.104Z,4.70
2023-12-15T18:34:55.887Z,4.70
2023-12-15T18:37:24.502Z,4.70
2023-12-15T18:39:54.625Z,4.80
2023-12-15T18:42:24.471Z,4.70
2023-12-15T18:44:54.592Z,4.70
2023-12-15T18:47:23.191Z,4.70
2023-12-15T18:49:51.948Z,4.80
2023-12-15T18:52:20.964Z,4.80
2023-12-15T18:54:49.692Z,4.70
2023-12-15T18:57:18.346Z,4.80
2023-12-15T18:59:47.107Z,4.70
2023-12-15T19:02:17.551Z,4.80
2023-12-15T19:04:46.826Z,4.70
2023-12-15T19:07:15.479Z,4.70
2023-12-15T19:09:44.858Z,4.70
2023-12-15T19:12:13.450Z,4.80
2023-12-15T19:14:42.810Z,4.80
2023-12-15T19:17:11.708Z,4.80
2023-12-15T19:19:44.512Z,4.70
2023-12-15T19:22:14.550Z,4.90
2023-12-15T19:24:43.276Z,4.90
2023-12-15T19:27:11.698Z,4.90
2023-12-15T19:29:40.343Z,4.90
2023-12-15T19:32:08.932Z,4.90
2023-12-15T19:34:37.957Z,4.90
2023-12-15T19:37:08.492Z,5.00
2023-12-15T19:39:37.697Z,5.00
2023-12-15T19:42:07.150Z,5.00
2023-12-15T19:44:37.195Z,5.00
2023-12-15T19:47:06.165Z,5.00
2023-12-15T19:49:35.032Z,4.90
2023-12-15T19:52:04.664Z,4.90
2023-12-15T19:54:34.756Z,5.00
2023-12-15T19:57:03.347Z,5.00
2023-12-15T19:59:32.584Z,5.00
2023-12-15T20:02:04.556Z,5.00
2023-12-15T20:04:36.207Z,5.00
2023-12-15T20:07:04.890Z,5.00
2023-12-15T20:09:34.815Z,5.00
2023-12-15T20:12:07.425Z,5.00
2023-12-15T20:14:35.948Z,5.00
2023-12-15T20:17:04.634Z,4.90
2023-12-15T20:19:33.349Z,4.90
2023-12-15T20:22:02.827Z,4.90
2023-12-15T20:24:32.743Z,5.00
2023-12-15T20:27:02.925Z,4.90
2023-12-15T20:29:31.455Z,4.90
2023-12-15T20:32:00.281Z,5.00
2023-12-15T20:34:29.757Z,5.00
2023-12-15T20:36:58.506Z,5.00
2023-12-15T20:39:27.522Z,5.00
2023-12-15T20:41:56.276Z,5.00
2023-12-15T20:44:28.128Z,4.80
2023-12-15T20:46:57.015Z,4.80
2023-12-15T20:49:26.501Z,4.80
2023-12-15T20:51:57.428Z,4.90
2023-12-15T20:54:26.591Z,4.90
2023-12-15T20:56:55.354Z,4.90
2023-12-15T20:59:25.251Z,5.00
2023-12-15T21:01:54.183Z,4.90
2023-12-15T21:04:22.837Z,5.10
2023-12-15T21:06:51.287Z,5.00
2023-12-15T21:09:20.394Z,5.00
2023-12-15T21:11:49.666Z,5.00
2023-12-15T21:14:18.263Z,5.10
2023-12-15T21:16:48.106Z,5.10
2023-12-15T21:19:17.015Z,5.10
2023-12-15T21:21:47.055Z,5.10
2023-12-15T21:24:15.690Z,5.10
2023-12-15T21:26:44.258Z,5.00
2023-12-15T21:29:13.137Z,5.10
2023-12-15T21:31:41.947Z,5.00
2023-12-15T21:34:12.725Z,5.00
2023-12-15T21:36:44.178Z,4.90
2023-12-15T21:39:13.118Z,4.80
2023-12-15T21:41:41.996Z,4.80
2023-12-15T21:44:10.668Z,4.80
2023-12-15T21:46:40.110Z,4.80
2023-12-15T21:49:09.706Z,4.90
2023-12-15T21:51:41.130Z,5.00
2023-12-15T21:54:10.693Z,5.00
2023-12-15T21:56:39.427Z,5.00
2023-12-15T21:59:08.240Z,5.10
2023-12-15T22:01:36.901Z,5.00
2023-12-15T22:04:08.761Z,4.90
2023-12-15T22:06:37.624Z,4.90
2023-12-15T22:09:10.395Z,4.90
2023-12-15T22:11:38.986Z,4.80
2023-12-15T22:14:07.498Z,4.90
2023-12-15T22:16:39.688Z,4.90
2023-12-15T22:19:08.747Z,4.90
2023-12-15T22:21:39.181Z,5.00
2023-12-15T22:24:09.278Z,5.00
2023-12-15T22:26:38.728Z,5.10
2023-12-15T22:29:07.183Z,5.10
2023-12-15T22:31:35.699Z,5.10
2023-12-15T22:34:04.568Z,5.10
2023-12-15T22:36:33.142Z,5.20
2023-12-15T22:39:01.618Z,5.10
2023-12-15T22:41:31.602Z,5.10
2023-12-15T22:44:00.634Z,5.10
2023-12-15T22:46:29.407Z,5.10
2023-12-15T22:48:58.408Z,5.10
2023-12-15T22:51:27.201Z,5.20
2023-12-15T22:53:55.873Z,5.10
2023-12-15T22:56:24.425Z,5.10
2023-12-15T22:58:55.200Z,5.10
2023-12-15T23:01:24.163Z,5.00
2023-12-15T23:03:52.694Z,5.10
2023-12-15T23:06:21.405Z,5.20
2023-12-15T23:08:49.878Z,5.00
2023-12-15T23:11:18.384Z,5.10
2023-12-15T23:13:46.904Z,5.10
2023-12-15T23:16:16.846Z,5.10
2023-12-15T23:18:46.046Z,5.10
2023-12-15T23:21:23.565Z,5.10
2023-12-15T23:23:58.305Z,5.10
2023-12-15T23:26:26.843Z,5.10
2023-12-15T23:28:55.330Z,5.00
2023-12-15T23:31:25.198Z,5.00
2023-12-15T23:33:53.782Z,4.90
2023-12-15T23:36:23.594Z,5.00
2023-12-15T23:38:52.097Z,5.00
2023-12-15T23:41:20.919Z,5.10
2023-12-15T23:43:49.684Z,5.10
2023-12-15T23:46:18.714Z,5.00
2023-12-15T23:48:48.866Z,5.00
2023-12-15T23:51:17.759Z,5.10
2023-12-15T23:53:46.377Z,5.10
2023-12-15T23:56:15.069Z,5.10
2023-12-15T23:58:44.252Z,5.10
